x

Buoy E01 - Central Maine Shelf (44032) Wave Buoy

5:04 - Thu 29th Jan 2015 All times are EST. -5 hours from GMT.

  • Sig Wave height 3.0ft
  • Peak Period 11s
  • Wind
    13mph, 16mph gusts
  • Sea Temp 40°f
  • Ar Temp 19°f
  • Sea Pressure 1023.5mb
  • Buoy E01 - Central Maine Shelf
  • Buoy E01 - Central Maine Shelf

More Historic Weather Station data

Upgrade to MSW Pro to gain access to the past 30 days of data for over 8000 Wavebouys and Weather Stations around the globe.

Join Pro

Comparision Forecast

View Surf forecast
   
Qui 01/29 5:04 3ft 11s 13 16 mph 1023.5mb 40f 19f
4:04 3.5ft 11s 13 18 mph 1023.4mb 40f 19f
3:04 3.5ft 11s 13 18 mph 1023.8mb 40f 19f
2:04  -   -  18 25 mph 1023.4mb 40f 20f
1:04 3ft 11s 13 16 mph 1022.7mb 40f 20f
12:04 3.5ft 11s 13 18 mph 1021.9mb 40f 21f
Qua 01/28 11:04 3.5ft 11s 16 20 mph 1021.2mb 40f 22f
10:04 3ft 4s 27 38 mph 1020.2mb 40f 23f
9:04 3.5ft 4s 34 45 mph 1019.2mb 40f 23f
8:04 5ft 11s 34 43 mph 1018.5mb 40f 24f
7:04 3.5ft 4s 22 36 mph 1017mb 40f 24f
6:04 5.5ft 11s 25 38 mph 1016mb 40f 25f
5:04 3ft 4s 27 34 mph 1015.1mb 40f 25f
4:04 3ft 4s 25 31 mph 1013.6mb 40f 25f
3:04 5ft 11s 20 29 mph 1012.7mb 40f 24f
2:04  -   -  22 27 mph 1011.7mb 40f 23f
1:04 6ft 11s 20 36 mph 1011.2mb 40f 22f
12:04  -   -  27 34 mph 1011.3mb 40f 21f
11:04  -   -  27 34 mph 1011.2mb 40f 20f
10:04  -   -  27 40 mph 1010.4mb 41f 20f
9:04  -   -  31 40 mph 1009.2mb 41f 20f
8:04  -   -  34 43 mph - 41f 20f
7:04  -   -  36 43 mph - 41f 20f
6:04 15ft 11s 34 43 mph - 41f 20f
5:04 6ft 5s 34 45 mph - 41f 21f
4:04 6ft 5s 36 47 mph - 41f 21f
3:04 7ft 5s 36 49 mph - 41f 21f
2:04 7ft 5s 36 54 mph - 41f 20f
1:04 7ft 5s 36 47 mph - 41f 20f
12:04 7.5ft 5s 40 54 mph - 41f 20f
Ter 01/27 11:04 7.5ft 5s 38 51 mph - 42f 20f
10:04 8ft 5s 43 58 mph - 42f 20f
9:04 1.6ft 3s 38 56 mph - 42f 20f
8:04  -   -  45 60 mph - 41f 20f
7:04 8.5ft 5s 45 56 mph - 41f 20f
6:04  -   -  43 51 mph - 41f 21f
5:04 8ft 5s 40 51 mph - 42f 22f
4:04  -   -  36 49 mph - 42f 22f
3:04  -   -  43 54 mph - 42f 22f
2:04 3ft 3s 40 49 mph - 42f 22f
1:04 6ft 5s 40 54 mph - 42f 22f
12:04  -   -  31 45 mph - 42f 21f
11:04  -   -  36 49 mph - 42f 21f
10:04  -   -  47 58 mph - 42f 21f
9:04  -   -  31 49 mph - 42f 20f
8:04  -   -  34 45 mph - 42f 21f
7:04 17.5ft 11s 38 47 mph - 42f 20f
6:04  -   -  45 56 mph - 42f 20f
5:04 13.5ft 8s 43 54 mph 1007.6mb 42f 21f
4:04 12ft 8s 43 54 mph - 42f 22f
3:04 12ft 8s 40 49 mph 1009.3mb 43f 22f
2:04 9ft 6s 40 47 mph 1010.7mb 43f 22f
1:04 9ft 6s 38 49 mph 1013.1mb 43f 23f
12:04 7ft 5s 34 49 mph 1013.9mb 43f 23f
Seg 01/26 11:04 6ft 5s 31 45 mph 1016.5mb 43f 23f
10:04 7ft 5s 27 34 mph 1018.5mb 43f 23f
9:04 4.5ft 5s 27 34 mph 1019.9mb 43f 23f
8:04 4ft 5s 25 31 mph 1020.8mb 43f 24f
7:04 5ft 11s 25 31 mph 1021.1mb 43f 24f
6:04 4.5ft 11s 22 27 mph 1021.4mb 43f 22f
5:04 4.5ft 11s 18 25 mph 1020.7mb 43f 22f
4:04 2.5ft 4s 18 25 mph 1020.4mb 43f 21f
3:04  -   -  16 20 mph 1020.8mb 43f 21f
2:04 4.5ft 11s 16 22 mph 1020.1mb 43f 19f
1:04 2.5ft 4s 16 25 mph 1020.8mb 43f 19f
12:04 2.5ft 4s 18 20 mph 1021.6mb 43f 18f
11:04 4.5ft 11s 16 22 mph 1022.4mb 43f 18f
10:04  -   -  16 22 mph 1022.4mb 43f 17f
9:04 5ft 11s 18 20 mph 1021.8mb 43f 16f
8:04  -   -  18 22 mph 1021.6mb 43f 15f
7:04 5.5ft 11s 20 25 mph 1020.3mb 43f 15f
6:04 6ft 11s 22 27 mph 1019.4mb 43f 16f
5:04 5ft 11s 20 27 mph 1018.9mb 43f 16f
4:04 3ft 4s 22 27 mph 1017.8mb 43f 17f
3:04 3.5ft 4s 22 27 mph 1017.7mb 43f 17f
2:04  -   -  25 29 mph 1017.6mb 43f 17f
1:04 6ft 11s 27 34 mph 1016.5mb 43f 17f
12:04 4.5ft 5s 29 34 mph 1015.9mb 43f 17f
Dom 01/25 11:04 4.5ft 4s 27 34 mph 1015.5mb 43f 17f
10:04 4.5ft 4s 27 34 mph 1014.2mb 43f 18f
9:04 4.5ft 4s 25 29 mph 1012.9mb 43f 20f
8:04 7.5ft 11s 25 31 mph 1011.4mb 43f 22f
7:04 4.5ft 6s 27 31 mph 1009.6mb 43f 25f
6:04  -   -  25 31 mph 1007.6mb 43f 27f
5:04 10ft 11s 29 40 mph 1005.6mb 43f 28f
4:04 4.5ft 4s 31 43 mph 1003.5mb 43f 30f
3:04 4.5ft 6s 22 27 mph 1002mb 43f 32f
2:04 5ft 6s 22 27 mph 1000.2mb 43f 32f
1:04 6ft 6s 29 36 mph 999mb 43f 33f
12:04 6ft 6s 27 34 mph 998.4mb 43f 33f